Sagle, Idaho
Current Conditions -  °F | °C
As of 9:15 AM on Saturday 25 Oct 2014 (Local Time) from KSZT Reporting Station
Clear Clear  
Wind Chill: 37°   Ceiling: Unl
Heat Index: 45°   Visibility: 10mi
Dew Point: 39°   Wind: 17mph
Humidity: 81%   Direction: 20°NNE
Pressure: 29.75"   Gusts: NA
Location:  48.2°N, 116.55°W
Report Text: KSZT 251615Z AUTO 02015KT 10SM CLR 07/04 A2975 RMK AO2
Loading
Personal Weather Stations






























Interactive Weather Map New forecast layout! Learn more

10-Day Weather Forecast

Advertisements
Track Severe Weather on mobile